Airfield :
LOGIN :

Register | Disclaimer

   EN    FR    IT 

 










Legend :    VFR   Marginal VFR   IFR   Intensive IFR   Very Intensive IFR
Visi :
Ceiling :
>= 8 km
>= 3000ft
5 to 8 km
1000 to 3000 ft
1500m to 5 km
500 to 1000 ft
800 to 1500m
200 to 500 ft
< 800m
< 200 ft
Symbols :   Thunderstorms  Fog  Heavy snow  Heavy precipitations  Wind > 20 kt
SIGMETs :     Misc.  Thunderstorms  Icing  Turbulence  Mountain Waves  Volcanic Ashes







- Airport Elevation : 32 ft
- IATA code : LKZ


EGUL - RAF Lakenheath

CURRENT METAR :
  • 160856Z AUTO 18006KT 9999 OVC025 09/06 A3017 RMK AO2 SLP220 T00850060 52007 $

EXPIRED METARs :
  • 160756Z AUTO 18005KT 9999 OVC025 08/06 A3016 RMK AO2 SLP217 T00810056 $
  • 160656Z AUTO 18004KT 9999 OVC024 07/05 A3016 RMK AO2 SLP217 T00720048 $
  • 160641Z AUTO 18004KT 9999 OVC024 07/05 A3016 RMK AO2 SLP217 $

TAF AMD TAF EGUL
Valid from the 15 at 14:00 until the 16 at 18:00 UTC


151421Z 1514/1618 VRB06KT 9999 SKC QNH3028INS
BECMG 1604/1605 VRB06KT 8000 BR BKN010 QNH3015INS
BECMG 1611/1612 18009KT 9999 NSW BKN010 QNH3010INS TX15/1514Z TN00/1604Z LAST NO AMDS AFT 1514 NEXT 1820
No reported NOTAMs for that airfield.



MET'MAP, your aeronautical weather chart ! - Copyright ORBIFLY December 2007 - Disclaimer

ORBIFLY MET'MAP TEAM :

Programming & Development : Alexandra Zaïnal
Concept & Development : Baudouin d'Aumeries
Co-Development & Prog : Marc-Olivier Méhu
Technical & hardware support : Manuel Goepfert

Contact : metmap@orbifly.com




SOURCES & CREDITS :

   NOAA